METAR Data
IDs: Format: Raw Decoded Include TAF

Data at: 1955 UTC 31 Jan 2023

KBRO 311928Z 33012KT 5SM BR OVC005 07/06 A3014 RMK AO2 T00720061